This is the latest recevied weather packets stored in our database for station/object SQ7FJB-2. If no packets are shown the sender has not sent any weather packets the latest 10 day(s).
| Time | Temp. | Humidity | Pressure | Rain* | Wind** | Luminosity | Snow |
|---|---|---|---|---|---|---|---|
| 1777788101 | 15° C | 52% | 1017.3 hPa | 0 mm | - | - | - |
| 1777787489 | 14.44° C | 53% | 1017.3 hPa | 0 mm | - | - | - |
| 1777786875 | 14.44° C | 55% | 1017.3 hPa | 0 mm | - | - | - |
| 1777786276 | 13.89° C | 55% | 1017.3 hPa | 0 mm | - | - | - |
| 1777785663 | 13.33° C | 57% | 1017.4 hPa | 0 mm | - | - | - |
| 1777785063 | 12.78° C | 57% | 1017.5 hPa | 0 mm | - | - | - |
| 1777784462 | 12.22° C | 60% | 1017.6 hPa | 0 mm | - | - | - |
| 1777783850 | 11.67° C | 59% | 1017.7 hPa | 0 mm | - | - | - |
| 1777783238 | 10.56° C | 63% | 1017.7 hPa | 0 mm | - | - | - |
| 1777782625 | 9.44° C | 68% | 1017.7 hPa | 0 mm | - | - | - |
| 1777782026 | 8.33° C | 73% | 1017.7 hPa | 0 mm | - | - | - |
| 1777781425 | 7.78° C | 75% | 1017.6 hPa | 0 mm | - | - | - |
| 1777780825 | 6.11° C | 79% | 1017.5 hPa | 0 mm | - | - | - |
| 1777780225 | 4.44° C | 89% | 1017.6 hPa | 0 mm | - | - | - |
| 1777779613 | 3.89° C | 92% | 1017.6 hPa | 0 mm | - | - | - |
| 1777779013 | 3.33° C | 93% | 1017.6 hPa | 0 mm | - | - | - |
| 1777778400 | 3.33° C | 92% | 1017.7 hPa | 0 mm | - | - | - |
| 1777777800 | 3.33° C | 92% | 1017.6 hPa | 0 mm | - | - | - |
| 1777777188 | 3.33° C | 91% | 1017.7 hPa | 0 mm | - | - | - |
| 1777776576 | 3.33° C | 91% | 1017.6 hPa | 0 mm | - | - | - |
| 1777775975 | 3.89° C | 90% | 1017.6 hPa | 0 mm | - | - | - |
| 1777775363 | 3.89° C | 90% | 1017.7 hPa | 0 mm | - | - | - |
| 1777774750 | 3.89° C | 90% | 1017.7 hPa | 0 mm | - | - | - |
| 1777774138 | 3.89° C | 90% | 1017.7 hPa | 0 mm | - | - | - |
| 1777773525 | 4.44° C | 87% | 1017.7 hPa | 0 mm | - | - | - |
* Rain latest hour (hover to see other rain measurements)
** Current wind speed in m/s (hover to see current wind gust speed)